Time;durP1;ratioP1;P1;durP2;ratioP2;P2;SDS_P1;SDS_P2;PMS_P1;PMS_P2;Temp;Humidity;BMP_temperature;BMP_pressure;BME280_temperature;BME280_humidity;BME280_pressure;Samples;Min_cycle;Max_cycle;Signal;HPM_P1;HPM_P2
2021/12/07 00:01:04;;;;;;;30.27;18.77;;;2.20;99.90;;;;;;5117149;28;20463;-69
2021/12/07 00:03:31;;;;;;;26.97;16.47;;;2.10;99.90;;;;;;5116837;28;20472;-69
2021/12/07 00:05:58;;;;;;;25.40;16.27;;;2.10;99.90;;;;;;5116818;28;20505;-69
2021/12/07 00:08:27;;;;;;;30.67;18.00;;;2.20;99.90;;;;;;5116791;28;20555;-69
2021/12/07 00:10:54;;;;;;;28.53;18.73;;;2.10;99.90;;;;;;5116342;28;20525;-69
2021/12/07 00:13:24;;;;;;;30.53;19.60;;;2.00;99.90;;;;;;5116467;28;20937;-69
2021/12/07 00:15:51;;;;;;;30.43;18.10;;;1.90;99.90;;;;;;5116729;28;20484;-69
2021/12/07 00:18:17;;;;;;;29.37;17.63;;;1.80;99.90;;;;;;5116669;28;20460;-69
2021/12/07 00:20:44;;;;;;;32.67;20.27;;;1.70;99.90;;;;;;5116899;28;20452;-69
2021/12/07 00:23:11;;;;;;;29.60;18.23;;;1.70;99.90;;;;;;5116452;28;20517;-69
2021/12/07 00:25:38;;;;;;;29.27;18.60;;;1.80;99.90;;;;;;5116634;28;20463;-69
2021/12/07 00:28:06;;;;;;;31.70;19.70;;;1.70;99.90;;;;;;5116525;28;20461;-69
2021/12/07 00:30:35;;;;;;;30.77;18.40;;;1.70;99.90;;;;;;5116399;28;20452;-69
2021/12/07 00:33:13;;;;;;;31.10;18.90;;;1.70;99.90;;;;;;5116144;28;20560;-69
2021/12/07 00:35:39;;;;;;;30.07;18.93;;;1.80;99.90;;;;;;5116197;28;20779;-68
2021/12/07 00:38:09;;;;;;;28.20;17.67;;;1.70;99.90;;;;;;5116418;28;20499;-69
2021/12/07 00:40:36;;;;;;;31.40;17.00;;;1.70;99.90;;;;;;5116111;28;20495;-69
2021/12/07 00:43:03;;;;;;;30.53;18.27;;;1.60;99.90;;;;;;5116093;28;20488;-69
2021/12/07 00:45:34;;;;;;;27.93;17.03;;;1.50;99.90;;;;;;5116029;28;20457;-69
2021/12/07 00:48:04;;;;;;;33.80;18.23;;;1.40;99.90;;;;;;5115757;28;20433;-69
2021/12/07 00:50:32;;;;;;;27.33;16.67;;;1.40;99.90;;;;;;5115846;28;20444;-68
2021/12/07 00:53:02;;;;;;;27.93;16.90;;;1.40;99.90;;;;;;5115758;28;20453;-69
2021/12/07 00:55:32;;;;;;;24.20;15.70;;;1.40;99.90;;;;;;5115872;28;20844;-69
2021/12/07 00:58:00;;;;;;;26.97;16.73;;;1.40;99.90;;;;;;5115726;28;20484;-69
2021/12/07 01:00:31;;;;;;;26.57;15.60;;;1.40;99.90;;;;;;5115462;28;20448;-68
2021/12/07 01:02:57;;;;;;;31.03;15.97;;;1.50;99.90;;;;;;5116065;28;20493;-69
2021/12/07 01:05:32;;;;;;;25.17;16.30;;;1.40;99.90;;;;;;5115503;28;20485;-68
2021/12/07 01:08:16;;;;;;;29.33;14.70;;;1.40;99.90;;;;;;5115671;28;20473;-69
2021/12/07 01:24:41;;;;;;;22.33;14.37;;;1.50;99.90;;;;;;5115890;28;20428;-69
2021/12/07 01:27:08;;;;;;;23.43;15.20;;;1.50;99.90;;;;;;5114523;28;20440;-69
2021/12/07 01:29:36;;;;;;;21.40;14.13;;;1.50;99.90;;;;;;5115445;28;20467;-69
2021/12/07 01:32:07;;;;;;;25.30;16.20;;;1.50;99.90;;;;;;5115234;28;20503;-69
2021/12/07 01:35:08;;;;;;;26.07;14.73;;;1.60;99.90;;;;;;5115262;28;20777;-69
2021/12/07 01:37:50;;;;;;;18.67;13.20;;;1.50;99.90;;;;;;5114813;28;20469;-69
2021/12/07 01:40:31;;;;;;;22.17;14.73;;;1.50;99.90;;;;;;5115448;28;20531;-69
2021/12/07 01:43:29;;;;;;;22.00;13.20;;;1.50;99.90;;;;;;5115139;28;20498;-69
2021/12/07 01:51:50;;;;;;;28.27;15.60;;;1.30;99.90;;;;;;5115133;28;20741;-69
2021/12/07 01:59:50;;;;;;;24.80;16.00;;;1.20;99.90;;;;;;5115431;28;20428;-69
2021/12/07 02:02:19;;;;;;;22.63;14.00;;;1.20;99.90;;;;;;5115178;28;20483;-69
2021/12/07 02:04:46;;;;;;;22.07;13.77;;;1.20;99.90;;;;;;5115136;28;20512;-69
2021/12/07 02:07:13;;;;;;;22.77;14.40;;;1.10;99.90;;;;;;5114767;28;20463;-69
2021/12/07 02:09:46;;;;;;;24.57;15.87;;;1.10;99.90;;;;;;5114960;28;20821;-69
2021/12/07 02:12:14;;;;;;;22.90;15.03;;;1.00;99.90;;;;;;5114769;28;20480;-68
2021/12/07 02:14:42;;;;;;;19.10;12.50;;;1.10;99.90;;;;;;5114818;28;20463;-68
2021/12/07 02:17:11;;;;;;;24.20;15.17;;;1.00;99.90;;;;;;5114477;28;20963;-68
2021/12/07 02:19:38;;;;;;;21.67;15.27;;;1.00;99.90;;;;;;5114696;28;20457;-70
2021/12/07 02:22:07;;;;;;;23.07;14.07;;;0.90;99.90;;;;;;5114745;28;20456;-70
2021/12/07 02:24:34;;;;;;;25.20;15.67;;;0.90;99.90;;;;;;5115081;28;20492;-68
2021/12/07 02:27:02;;;;;;;22.00;13.50;;;0.90;99.90;;;;;;5114774;28;20463;-69
2021/12/07 02:29:29;;;;;;;25.97;14.87;;;0.90;99.90;;;;;;5114497;28;20452;-69
2021/12/07 02:31:57;;;;;;;19.20;12.10;;;0.90;99.90;;;;;;5114451;28;20456;-69
2021/12/07 02:34:25;;;;;;;23.77;14.77;;;0.90;99.90;;;;;;5115217;28;20574;-69
2021/12/07 02:36:53;;;;;;;20.60;13.50;;;1.00;99.90;;;;;;5115156;28;20472;-69
2021/12/07 02:39:30;;;;;;;21.07;14.07;;;1.00;99.90;;;;;;5118757;28;20452;-69
2021/12/07 02:41:57;;;;;;;22.33;14.20;;;0.90;99.90;;;;;;5118650;28;20471;-69
2021/12/07 02:44:24;;;;;;;18.00;12.47;;;0.90;99.90;;;;;;5118374;28;20484;-69
2021/12/07 02:46:51;;;;;;;20.90;14.30;;;1.00;99.90;;;;;;5118610;28;20452;-68
2021/12/07 02:49:19;;;;;;;23.83;13.77;;;1.00;99.90;;;;;;5118133;28;20558;-68
2021/12/07 02:51:46;;;;;;;19.30;13.40;;;1.00;99.90;;;;;;5118717;28;20795;-68
2021/12/07 02:54:13;;;;;;;22.70;14.37;;;1.00;99.90;;;;;;5118472;28;20842;-69
2021/12/07 02:56:42;;;;;;;19.13;13.67;;;1.10;99.90;;;;;;5118147;28;20456;-69
2021/12/07 02:59:09;;;;;;;21.17;13.87;;;1.00;99.90;;;;;;5118930;28;20456;-69
2021/12/07 03:01:43;;;;;;;23.20;13.93;;;1.00;99.90;;;;;;5117781;28;20543;-69
2021/12/07 03:04:14;;;;;;;19.53;12.50;;;0.90;99.90;;;;;;5118237;28;20445;-69
2021/12/07 03:06:50;;;;;;;22.13;14.17;;;0.90;99.90;;;;;;5117791;28;20887;-69
2021/12/07 03:26:12;;;;;;;26.63;15.57;;;0.70;99.90;;;;;;5117556;28;20420;-69
2021/12/07 03:28:48;;;;;;;23.40;14.50;;;0.60;99.90;;;;;;5117230;28;20539;-69
2021/12/07 03:31:18;;;;;;;24.63;15.47;;;0.60;99.90;;;;;;5117117;28;20436;-69
2021/12/07 03:33:44;;;;;;;25.37;16.43;;;0.60;99.90;;;;;;5117268;28;20535;-69
2021/12/07 03:36:13;;;;;;;23.90;16.27;;;0.60;99.90;;;;;;5117313;28;20456;-69
2021/12/07 03:38:41;;;;;;;28.50;17.13;;;0.60;99.90;;;;;;5117345;28;20807;-69
2021/12/07 03:41:08;;;;;;;28.23;17.30;;;0.50;99.90;;;;;;5117309;28;20460;-69
2021/12/07 03:43:36;;;;;;;25.83;17.13;;;0.50;99.90;;;;;;5117248;28;20955;-69
2021/12/07 03:46:04;;;;;;;25.20;15.63;;;0.60;99.90;;;;;;5117376;28;20460;-69
2021/12/07 03:48:31;;;;;;;26.30;16.53;;;0.60;99.90;;;;;;5116999;28;20456;-69
2021/12/07 03:50:58;;;;;;;27.20;16.90;;;0.60;99.90;;;;;;5116976;28;20453;-69
2021/12/07 03:53:24;;;;;;;29.83;17.20;;;0.70;99.90;;;;;;5117205;28;20460;-69
2021/12/07 03:55:53;;;;;;;28.87;17.90;;;0.70;99.90;;;;;;5117061;28;20460;-69
2021/12/07 03:58:19;;;;;;;28.67;17.47;;;0.80;99.90;;;;;;5116926;28;20499;-69
2021/12/07 04:00:47;;;;;;;26.70;17.40;;;0.70;99.90;;;;;;5116947;28;20526;-69
2021/12/07 04:03:17;;;;;;;28.07;18.20;;;0.80;99.90;;;;;;5117204;28;20460;-69
2021/12/07 04:05:48;;;;;;;26.17;16.80;;;0.80;99.90;;;;;;5116625;28;20893;-69
2021/12/07 04:08:17;;;;;;;24.07;16.03;;;0.80;99.90;;;;;;5116891;28;20433;-69
2021/12/07 04:10:44;;;;;;;26.47;16.77;;;0.80;99.90;;;;;;5117007;28;20525;-69
2021/12/07 04:13:11;;;;;;;25.30;16.27;;;0.80;99.90;;;;;;5116792;28;20483;-69
2021/12/07 04:15:38;;;;;;;28.87;18.40;;;0.90;99.90;;;;;;5116171;28;20457;-69
2021/12/07 04:18:05;;;;;;;31.60;18.57;;;0.90;99.90;;;;;;5116344;28;20952;-70
2021/12/07 04:20:34;;;;;;;27.47;17.83;;;0.90;99.90;;;;;;5116994;28;20818;-70
2021/12/07 04:23:02;;;;;;;28.70;18.07;;;0.90;99.90;;;;;;5116983;28;20514;-69
2021/12/07 04:25:28;;;;;;;28.67;17.27;;;0.90;99.90;;;;;;5116465;28;20460;-68
2021/12/07 04:27:56;;;;;;;24.40;17.40;;;0.90;99.90;;;;;;5116773;28;20463;-70
2021/12/07 04:30:25;;;;;;;34.23;18.57;;;0.90;99.90;;;;;;5116485;28;20941;-68
2021/12/07 04:32:53;;;;;;;28.93;16.47;;;0.80;99.90;;;;;;5116883;28;20453;-68
2021/12/07 04:35:21;;;;;;;25.40;17.30;;;0.90;99.90;;;;;;5116479;28;20753;-69
2021/12/07 04:37:49;;;;;;;26.77;17.70;;;0.90;99.90;;;;;;5116429;27;20484;-69
2021/12/07 04:40:22;;;;;;;27.97;18.00;;;0.90;99.90;;;;;;5115799;28;20467;-67
2021/12/07 04:42:49;;;;;;;25.13;17.67;;;1.00;99.90;;;;;;5116603;28;20484;-68
2021/12/07 04:45:26;;;;;;;29.50;17.80;;;1.00;99.90;;;;;;5116228;28;20487;-69
2021/12/07 04:48:07;;;;;;;29.57;18.60;;;1.10;99.90;;;;;;5116017;28;20437;-68
2021/12/07 04:57:36;;;;;;;29.50;18.20;;;1.10;99.90;;;;;;5116059;28;20483;-69
2021/12/07 04:58:58;;;;;;;28.77;18.13;;;1.10;99.90;;;;;;5115931;28;20464;-69
2021/12/07 05:01:26;;;;;;;30.20;18.70;;;1.10;99.90;;;;;;5115100;28;20460;-69
2021/12/07 05:03:55;;;;;;;31.27;18.60;;;1.10;99.90;;;;;;5115819;28;21025;-70
2021/12/07 05:06:25;;;;;;;29.50;17.90;;;1.10;99.90;;;;;;5115767;28;20525;-69
2021/12/07 05:09:02;;;;;;;32.33;19.93;;;1.20;99.90;;;;;;5115466;28;20531;-69
2021/12/07 05:11:46;;;;;;;26.43;17.20;;;1.20;99.90;;;;;;5115669;28;20436;-69
2021/12/07 05:14:17;;;;;;;29.90;19.30;;;1.20;99.90;;;;;;5115885;27;20451;-69
2021/12/07 05:17:01;;;;;;;30.50;17.20;;;1.20;99.90;;;;;;5115401;28;20473;-69
2021/12/07 05:25:33;;;;;;;28.67;18.47;;;1.20;99.90;;;;;;5115415;28;20481;-69
2021/12/07 05:38:56;;;;;;;27.10;17.97;;;1.20;99.90;;;;;;5115540;28;20501;-69
2021/12/07 05:41:25;;;;;;;33.43;20.87;;;1.20;99.90;;;;;;5116366;28;20968;-68
2021/12/07 05:43:54;;;;;;;31.23;19.83;;;1.10;99.90;;;;;;5115375;28;20819;-69
2021/12/07 05:46:22;;;;;;;31.00;19.27;;;1.00;99.90;;;;;;5115174;28;20514;-69
2021/12/07 05:48:49;;;;;;;35.47;20.60;;;1.00;99.90;;;;;;5115663;28;20966;-69
2021/12/07 05:51:15;;;;;;;39.60;22.43;;;1.00;99.90;;;;;;5115305;28;20457;-69
2021/12/07 05:53:42;;;;;;;37.13;21.57;;;1.00;99.90;;;;;;5115907;28;20449;-69
2021/12/07 05:56:09;;;;;;;35.33;20.67;;;1.00;99.90;;;;;;5115592;28;20456;-69
2021/12/07 05:58:37;;;;;;;40.40;22.57;;;1.00;99.90;;;;;;5115054;28;20982;-69
2021/12/07 06:01:04;;;;;;;34.93;19.90;;;0.90;99.90;;;;;;5115554;28;20463;-69
2021/12/07 06:03:32;;;;;;;38.50;21.67;;;0.80;99.90;;;;;;5116777;28;20464;-69
2021/12/07 06:06:01;;;;;;;37.07;22.23;;;0.70;99.90;;;;;;5116698;28;20535;-70
2021/12/07 06:08:28;;;;;;;37.33;22.50;;;0.70;99.90;;;;;;5114710;28;20461;-70
2021/12/07 06:10:55;;;;;;;36.93;21.53;;;0.70;99.90;;;;;;5114760;28;20467;-69
2021/12/07 06:13:22;;;;;;;35.57;20.80;;;0.70;99.90;;;;;;5117488;28;20954;-70
2021/12/07 06:15:50;;;;;;;35.60;21.80;;;0.70;99.90;;;;;;5118879;28;20463;-69
2021/12/07 06:18:16;;;;;;;36.50;21.40;;;0.70;99.90;;;;;;5119155;28;20476;-69
2021/12/07 06:20:43;;;;;;;35.53;22.10;;;0.70;99.90;;;;;;5118842;28;20464;-69
2021/12/07 06:23:11;;;;;;;40.50;22.40;;;0.60;99.90;;;;;;5118496;28;20456;-69
2021/12/07 06:25:38;;;;;;;38.67;23.20;;;0.60;99.90;;;;;;5118057;28;20888;-69
2021/12/07 06:28:05;;;;;;;35.07;21.70;;;0.70;99.90;;;;;;5118534;28;20464;-69
2021/12/07 06:30:32;;;;;;;35.20;21.93;;;0.80;99.90;;;;;;5119024;28;20814;-69
2021/12/07 06:33:00;;;;;;;36.67;21.97;;;0.80;99.90;;;;;;5118725;28;20486;-69
2021/12/07 06:35:27;;;;;;;36.47;22.53;;;0.80;99.90;;;;;;5119040;28;20478;-69
2021/12/07 06:37:54;;;;;;;38.93;23.37;;;0.80;99.90;;;;;;5118090;28;20560;-69
2021/12/07 06:40:20;;;;;;;38.30;22.77;;;0.70;99.90;;;;;;5118197;28;20462;-69
2021/12/07 06:42:47;;;;;;;38.80;21.17;;;0.60;99.90;;;;;;5118087;28;20476;-69
2021/12/07 06:45:14;;;;;;;38.77;23.67;;;0.70;99.90;;;;;;5119193;28;20456;-69
2021/12/07 06:47:41;;;;;;;41.40;22.47;;;0.70;99.90;;;;;;5117768;28;20476;-69
2021/12/07 06:50:11;;;;;;;38.83;22.87;;;0.80;99.90;;;;;;5118150;28;20539;-69
2021/12/07 06:52:41;;;;;;;39.53;21.43;;;0.70;99.90;;;;;;5118287;28;20462;-69
2021/12/07 06:55:09;;;;;;;36.73;22.00;;;0.70;99.90;;;;;;5117874;28;20444;-69
2021/12/07 06:57:36;;;;;;;41.40;23.07;;;0.70;99.90;;;;;;5118375;28;20466;-68
2021/12/07 07:00:05;;;;;;;35.10;22.60;;;0.80;99.90;;;;;;5118744;28;20819;-69
2021/12/07 07:02:32;;;;;;;45.03;24.00;;;0.80;99.90;;;;;;5118200;28;20452;-69
2021/12/07 07:04:58;;;;;;;41.03;22.60;;;0.80;99.90;;;;;;5117863;28;20467;-69
2021/12/07 07:07:27;;;;;;;39.80;22.50;;;0.80;99.90;;;;;;5117905;28;20465;-67
2021/12/07 07:09:53;;;;;;;35.97;21.87;;;0.80;99.90;;;;;;5118780;28;20812;-69
2021/12/07 07:12:20;;;;;;;44.90;23.53;;;0.90;99.90;;;;;;5117750;28;20460;-70
2021/12/07 07:14:48;;;;;;;37.87;22.50;;;0.90;99.90;;;;;;5117247;28;20467;-70
2021/12/07 07:17:15;;;;;;;41.30;25.97;;;1.00;99.90;;;;;;5117471;28;20977;-68
2021/12/07 07:19:41;;;;;;;39.60;22.43;;;1.00;99.90;;;;;;5117615;28;20487;-69
2021/12/07 07:22:08;;;;;;;36.07;22.60;;;1.00;99.90;;;;;;5117366;28;20456;-69
2021/12/07 07:24:37;;;;;;;38.73;23.33;;;1.00;99.90;;;;;;5116582;28;20448;-69
2021/12/07 07:27:05;;;;;;;38.57;21.80;;;1.00;99.90;;;;;;5117838;28;20459;-70
2021/12/07 07:29:32;;;;;;;39.00;22.80;;;1.10;99.90;;;;;;5117320;28;20935;-69
2021/12/07 07:31:58;;;;;;;39.63;22.67;;;1.10;99.90;;;;;;5117245;28;20490;-69
2021/12/07 07:34:25;;;;;;;36.60;21.80;;;1.10;99.90;;;;;;5117566;28;20464;-69
2021/12/07 07:36:52;;;;;;;36.23;22.03;;;1.10;99.90;;;;;;5117309;28;20445;-69
2021/12/07 07:39:18;;;;;;;39.47;22.83;;;1.10;99.90;;;;;;5117142;28;20492;-69
2021/12/07 07:41:47;;;;;;;40.17;22.20;;;1.10;99.90;;;;;;5117239;28;20456;-69
2021/12/07 07:44:14;;;;;;;37.50;22.97;;;1.10;99.90;;;;;;5117083;28;20491;-69
2021/12/07 07:46:41;;;;;;;34.50;20.13;;;1.20;99.90;;;;;;5117433;28;20824;-69
2021/12/07 07:49:08;;;;;;;33.83;21.20;;;1.20;99.90;;;;;;5116791;28;20475;-69
2021/12/07 07:51:35;;;;;;;39.37;22.23;;;1.20;99.90;;;;;;5116980;28;20471;-68
2021/12/07 07:54:03;;;;;;;40.03;21.73;;;1.20;99.90;;;;;;5116986;28;20529;-69
2021/12/07 07:56:31;;;;;;;34.67;21.50;;;1.20;99.90;;;;;;5116901;28;20457;-69
2021/12/07 07:59:00;;;;;;;33.77;19.63;;;1.20;99.90;;;;;;5116725;28;20487;-69
2021/12/07 08:01:30;;;;;;;36.40;20.40;;;1.30;99.90;;;;;;5116722;28;20551;-70
2021/12/07 08:03:56;;;;;;;31.50;19.13;;;1.30;99.90;;;;;;5116586;28;20540;-69
2021/12/07 08:06:23;;;;;;;34.90;19.20;;;1.30;99.90;;;;;;5116893;28;20456;-69
2021/12/07 08:08:50;;;;;;;31.67;19.70;;;1.30;99.90;;;;;;5116483;28;20448;-68
2021/12/07 08:11:16;;;;;;;30.30;20.20;;;1.30;99.90;;;;;;5116766;28;20456;-69
2021/12/07 08:13:43;;;;;;;30.30;19.80;;;1.40;99.90;;;;;;5116680;28;20467;-69
2021/12/07 08:16:16;;;;;;;34.50;20.00;;;1.40;99.90;;;;;;5117446;28;20467;-69
2021/12/07 08:18:46;;;;;;;30.10;19.87;;;1.40;99.90;;;;;;5117755;28;20533;-70
2021/12/07 08:21:13;;;;;;;31.37;19.17;;;1.40;99.90;;;;;;5117953;28;20464;-70
2021/12/07 08:23:40;;;;;;;27.53;18.27;;;1.50;99.90;;;;;;5117158;28;20471;-70
2021/12/07 08:26:09;;;;;;;30.97;18.13;;;1.50;99.90;;;;;;5116701;28;20468;-69
2021/12/07 08:28:35;;;;;;;31.40;19.80;;;1.50;99.90;;;;;;5116978;28;20548;-68
2021/12/07 08:31:04;;;;;;;30.77;18.10;;;1.60;99.90;;;;;;5116652;28;20457;-70
2021/12/07 08:33:33;;;;;;;36.07;20.57;;;1.60;99.90;;;;;;5116395;28;20463;-69
2021/12/07 08:36:00;;;;;;;33.87;19.97;;;1.70;99.90;;;;;;5115882;28;20517;-69
2021/12/07 08:38:28;;;;;;;33.87;19.23;;;1.60;99.90;;;;;;5115934;28;20882;-69
2021/12/07 08:40:55;;;;;;;36.87;20.00;;;1.70;99.90;;;;;;5116130;28;20460;-69
2021/12/07 08:43:23;;;;;;;27.90;18.73;;;1.70;99.90;;;;;;5115582;28;20484;-70
2021/12/07 08:45:51;;;;;;;33.43;19.90;;;1.80;99.90;;;;;;5115670;28;20463;-69
2021/12/07 08:48:18;;;;;;;31.40;18.50;;;1.80;99.90;;;;;;5115984;28;20868;-69
2021/12/07 08:50:47;;;;;;;32.10;19.33;;;1.90;99.90;;;;;;5115604;28;20562;-70
2021/12/07 08:53:19;;;;;;;28.57;18.20;;;1.90;99.90;;;;;;5115828;28;20461;-70
2021/12/07 09:01:20;;;;;;;30.67;18.67;;;2.10;99.90;;;;;;5115275;28;20428;-70
2021/12/07 09:03:49;;;;;;;31.97;19.33;;;2.10;99.90;;;;;;5115704;28;20461;-68
2021/12/07 09:06:17;;;;;;;26.17;17.97;;;2.20;99.90;;;;;;5115134;28;20456;-70
2021/12/07 09:08:44;;;;;;;31.10;18.37;;;2.20;99.90;;;;;;5115002;28;20459;-69
2021/12/07 09:11:14;;;;;;;28.70;18.50;;;2.20;99.90;;;;;;5115431;28;20460;-69
2021/12/07 09:13:41;;;;;;;32.13;19.53;;;2.20;99.90;;;;;;5115544;28;20452;-69
2021/12/07 09:16:08;;;;;;;30.17;19.10;;;2.20;99.90;;;;;;5115341;28;20825;-70
2021/12/07 09:18:35;;;;;;;30.57;19.73;;;2.20;99.90;;;;;;5115521;28;20764;-70
2021/12/07 09:21:04;;;;;;;29.67;19.40;;;2.30;99.90;;;;;;5115362;28;20471;-70
2021/12/07 09:23:32;;;;;;;31.13;17.60;;;2.30;99.90;;;;;;5115530;28;20448;-69
2021/12/07 09:25:59;;;;;;;33.23;18.27;;;2.30;99.90;;;;;;5115381;28;20549;-69
2021/12/07 09:28:26;;;;;;;26.40;16.90;;;2.40;99.90;;;;;;5115589;28;20460;-69
2021/12/07 09:30:53;;;;;;;32.60;18.70;;;2.40;99.90;;;;;;5115272;28;20518;-68
2021/12/07 09:33:20;;;;;;;29.50;18.33;;;2.40;99.90;;;;;;5115167;28;20943;-69
2021/12/07 09:35:47;;;;;;;28.47;18.87;;;2.50;99.90;;;;;;5115303;28;20460;-69
2021/12/07 09:38:14;;;;;;;27.93;18.33;;;2.50;99.90;;;;;;5114825;28;20467;-69
2021/12/07 09:40:43;;;;;;;26.60;18.07;;;2.50;99.90;;;;;;5115236;28;20483;-70
2021/12/07 09:43:12;;;;;;;31.00;18.80;;;2.50;99.90;;;;;;5114584;28;20480;-70
2021/12/07 09:45:40;;;;;;;30.23;19.43;;;2.50;99.90;;;;;;5115031;28;20509;-70
2021/12/07 09:48:08;;;;;;;29.37;19.40;;;2.50;99.90;;;;;;5113789;28;20460;-69
2021/12/07 09:50:36;;;;;;;31.13;19.13;;;2.40;99.90;;;;;;5114900;28;20452;-70
2021/12/07 09:53:04;;;;;;;43.00;24.30;;;2.40;99.90;;;;;;5115101;28;20452;-70
2021/12/07 09:55:31;;;;;;;29.93;19.60;;;2.30;99.90;;;;;;5115085;28;20452;-70
2021/12/07 09:57:59;;;;;;;32.40;18.67;;;2.20;99.90;;;;;;5115414;28;20452;-69
2021/12/07 10:00:26;;;;;;;29.30;18.77;;;2.20;99.90;;;;;;5117043;28;20974;-70
2021/12/07 10:02:55;;;;;;;40.63;20.70;;;2.20;99.90;;;;;;5116197;28;20457;-69
2021/12/07 10:05:23;;;;;;;35.17;21.63;;;2.30;99.90;;;;;;5114861;28;21000;-69
2021/12/07 10:07:51;;;;;;;30.87;18.90;;;2.40;99.90;;;;;;5114900;28;20463;-70
2021/12/07 10:10:21;;;;;;;34.53;20.37;;;2.40;99.90;;;;;;5114577;28;20461;-69
2021/12/07 10:12:47;;;;;;;35.80;21.80;;;2.50;99.90;;;;;;5115426;28;20463;-70
2021/12/07 10:15:16;;;;;;;32.27;18.87;;;2.50;99.90;;;;;;5114803;28;20767;-69
2021/12/07 10:17:43;;;;;;;32.23;20.03;;;2.60;99.90;;;;;;5114690;28;20463;-68
2021/12/07 10:20:25;;;;;;;33.17;19.87;;;2.60;99.90;;;;;;5114987;28;20487;-69
2021/12/07 10:22:53;;;;;;;36.27;20.43;;;2.60;99.90;;;;;;5115363;28;20466;-69
2021/12/07 10:25:26;;;;;;;34.93;19.40;;;2.70;99.90;;;;;;5115495;28;20488;-69
2021/12/07 10:27:53;;;;;;;34.97;20.97;;;2.70;99.90;;;;;;5115649;28;20441;-69
2021/12/07 10:30:23;;;;;;;34.60;21.00;;;2.60;99.90;;;;;;5114905;28;20448;-69
2021/12/07 10:33:01;;;;;;;37.40;21.73;;;2.60;99.90;;;;;;5115417;28;20851;-69
2021/12/07 10:35:30;;;;;;;35.03;20.70;;;2.60;99.90;;;;;;5115178;28;20508;-70
2021/12/07 10:38:11;;;;;;;33.00;20.77;;;2.60;99.90;;;;;;5114771;28;20969;-70
2021/12/07 10:40:55;;;;;;;34.57;21.77;;;2.70;99.90;;;;;;5115507;28;20476;-69
2021/12/07 10:43:44;;;;;;;31.37;21.90;;;2.70;99.90;;;;;;5115653;28;20480;-69
2021/12/07 10:46:31;;;;;;;33.23;19.73;;;2.70;99.90;;;;;;5116052;28;20531;-68
2021/12/07 10:49:34;;;;;;;32.63;20.00;;;2.60;99.90;;;;;;5116240;28;20909;-67
2021/12/07 10:52:08;;;;;;;29.73;18.60;;;2.50;99.90;;;;;;5115592;28;20454;-68
2021/12/07 10:54:42;;;;;;;34.93;20.73;;;2.50;99.90;;;;;;5115093;28;20535;-68
2021/12/07 10:57:12;;;;;;;35.70;21.00;;;2.50;99.90;;;;;;5115200;28;20437;-68
2021/12/07 10:59:40;;;;;;;34.87;20.90;;;2.50;99.90;;;;;;5118137;28;20940;-67
2021/12/07 11:02:18;;;;;;;34.30;22.67;;;2.50;99.90;;;;;;5118639;28;20452;-67
2021/12/07 11:04:46;;;;;;;35.90;20.67;;;2.60;99.90;;;;;;5119095;28;20570;-67
2021/12/07 11:07:17;;;;;;;35.33;19.23;;;2.60;99.90;;;;;;5118705;28;20456;-67
2021/12/07 11:09:55;;;;;;;33.13;21.27;;;2.50;99.90;;;;;;5118391;28;20433;-67
2021/12/07 11:12:23;;;;;;;37.00;20.10;;;2.60;99.90;;;;;;5117891;28;20505;-68
2021/12/07 11:14:53;;;;;;;30.90;20.17;;;2.60;99.90;;;;;;5118099;28;20788;-68
2021/12/07 11:17:24;;;;;;;32.33;20.10;;;2.60;99.90;;;;;;5118180;28;20488;-67
2021/12/07 11:19:52;;;;;;;32.73;20.70;;;2.60;99.90;;;;;;5120687;28;20460;-69
2021/12/07 11:22:22;;;;;;;32.13;20.20;;;2.50;99.90;;;;;;5121597;28;20858;-69
2021/12/07 11:24:51;;;;;;;36.17;21.87;;;2.50;99.90;;;;;;5120890;28;20480;-69
2021/12/07 11:30:11;;;;;;;35.10;21.13;;;2.60;99.90;;;;;;5123269;28;20424;-69
2021/12/07 11:32:43;;;;;;;33.13;19.57;;;2.60;99.90;;;;;;5117944;28;20449;-70
2021/12/07 11:35:18;;;;;;;35.27;20.93;;;2.60;99.90;;;;;;5117751;28;20512;-69
2021/12/07 11:37:47;;;;;;;33.43;21.00;;;2.70;99.90;;;;;;5117194;28;20452;-69
2021/12/07 11:40:18;;;;;;;32.07;21.07;;;2.70;99.90;;;;;;5117204;28;20872;-70
2021/12/07 11:42:45;;;;;;;30.07;19.70;;;2.80;99.90;;;;;;5116935;28;20480;-70
2021/12/07 11:45:15;;;;;;;34.83;21.93;;;2.90;99.90;;;;;;5117310;28;20794;-69
2021/12/07 11:47:46;;;;;;;33.27;21.40;;;2.90;99.90;;;;;;5117944;28;20504;-70
2021/12/07 11:50:21;;;;;;;35.87;22.27;;;2.90;99.90;;;;;;5117188;28;20444;-70
2021/12/07 11:52:53;;;;;;;35.30;21.30;;;2.90;99.90;;;;;;5117534;28;20432;-68
2021/12/07 11:55:21;;;;;;;33.00;20.43;;;2.90;99.90;;;;;;5117373;28;20448;-69
2021/12/07 11:57:48;;;;;;;37.57;20.87;;;3.00;99.90;;;;;;5117107;28;20457;-70
2021/12/07 12:00:20;;;;;;;36.77;20.33;;;3.00;99.90;;;;;;5116928;28;20469;-69
2021/12/07 12:02:48;;;;;;;34.00;19.47;;;3.00;99.90;;;;;;5116861;28;20452;-70
2021/12/07 12:05:15;;;;;;;35.20;20.70;;;3.00;99.90;;;;;;5117054;28;20457;-70
2021/12/07 12:07:46;;;;;;;35.00;21.07;;;2.90;99.90;;;;;;5117208;28;20448;-70
2021/12/07 12:10:14;;;;;;;38.83;22.50;;;2.80;99.90;;;;;;5116593;28;20468;-71
2021/12/07 12:12:55;;;;;;;36.40;22.60;;;2.80;99.90;;;;;;5116839;28;20456;-70
2021/12/07 12:15:47;;;;;;;33.90;20.20;;;2.80;99.90;;;;;;5117052;28;20440;-69
2021/12/07 12:18:23;;;;;;;33.53;21.20;;;2.80;99.90;;;;;;5117178;28;20436;-70
2021/12/07 12:21:07;;;;;;;34.20;21.50;;;2.80;99.90;;;;;;5116249;28;20464;-71
2021/12/07 12:23:46;;;;;;;35.43;22.03;;;2.80;99.90;;;;;;5116919;28;20467;-70
2021/12/07 12:26:20;;;;;;;36.60;22.33;;;2.80;99.90;;;;;;5116359;28;20451;-70
2021/12/07 12:28:49;;;;;;;37.27;21.80;;;2.70;99.90;;;;;;5116784;28;20437;-70
2021/12/07 12:31:16;;;;;;;36.50;21.37;;;2.70;99.90;;;;;;5115918;28;20547;-70
2021/12/07 12:33:53;;;;;;;36.60;20.40;;;2.70;99.90;;;;;;5117213;28;20731;-67
2021/12/07 12:36:23;;;;;;;36.23;22.20;;;2.70;99.90;;;;;;5116559;28;20449;-67
2021/12/07 12:38:58;;;;;;;34.33;21.17;;;2.70;99.90;;;;;;5116581;28;20821;-67
2021/12/07 12:41:25;;;;;;;33.43;21.83;;;2.70;99.90;;;;;;5117162;28;20474;-70
2021/12/07 12:43:54;;;;;;;39.73;22.00;;;2.60;99.90;;;;;;5116735;28;20515;-69
2021/12/07 12:46:24;;;;;;;35.93;21.57;;;2.60;99.90;;;;;;5116128;28;20457;-68
2021/12/07 12:48:56;;;;;;;40.87;22.10;;;2.70;99.90;;;;;;5115969;28;20763;-67
2021/12/07 12:51:24;;;;;;;35.07;20.70;;;2.70;99.90;;;;;;5115714;28;20881;-67
2021/12/07 12:53:53;;;;;;;37.13;22.60;;;2.90;99.90;;;;;;5115523;28;20927;-68
2021/12/07 12:56:23;;;;;;;39.93;22.43;;;2.90;99.90;;;;;;5115991;28;20456;-67
2021/12/07 12:58:53;;;;;;;37.43;21.80;;;2.80;99.90;;;;;;5115745;28;20456;-68
2021/12/07 13:01:24;;;;;;;42.10;21.97;;;2.80;99.90;;;;;;5115986;28;20467;-68
2021/12/07 13:04:04;;;;;;;33.90;21.83;;;2.80;99.90;;;;;;5115704;28;20441;-68
2021/12/07 13:06:52;;;;;;;37.40;22.67;;;2.90;99.90;;;;;;5115499;28;20531;-67
2021/12/07 13:09:35;;;;;;;38.63;22.83;;;2.90;99.90;;;;;;5115796;27;20441;-68
2021/12/07 13:12:06;;;;;;;38.77;23.43;;;2.80;99.90;;;;;;5115768;28;20488;-68
2021/12/07 13:14:43;;;;;;;40.27;22.77;;;2.90;99.90;;;;;;5116363;28;20476;-68
2021/12/07 13:17:18;;;;;;;38.67;23.17;;;2.90;99.90;;;;;;5116146;28;20446;-68
2021/12/07 13:20:11;;;;;;;34.20;20.70;;;3.00;99.90;;;;;;5116670;28;20487;-68
2021/12/07 13:22:46;;;;;;;38.30;22.60;;;3.10;99.90;;;;;;5115089;28;20456;-68
2021/12/07 13:25:16;;;;;;;42.43;23.50;;;3.00;99.90;;;;;;5116630;28;20971;-68
2021/12/07 13:28:04;;;;;;;34.63;22.03;;;2.90;99.90;;;;;;5115122;28;20853;-68
2021/12/07 13:30:37;;;;;;;37.87;22.23;;;2.90;99.90;;;;;;5114930;28;20479;-68
2021/12/07 13:33:05;;;;;;;37.43;23.43;;;2.90;99.90;;;;;;5115534;28;20444;-68
2021/12/07 13:35:34;;;;;;;34.60;21.57;;;2.80;99.90;;;;;;5115090;28;20819;-68
2021/12/07 13:38:15;;;;;;;36.50;23.37;;;2.80;99.90;;;;;;5115178;28;20788;-68
2021/12/07 13:40:42;;;;;;;35.90;21.57;;;2.60;99.90;;;;;;5115275;28;20464;-68
2021/12/07 13:43:09;;;;;;;38.50;22.70;;;2.60;99.90;;;;;;5115121;28;20818;-68
2021/12/07 13:45:36;;;;;;;38.63;22.77;;;2.60;99.90;;;;;;5115027;28;20904;-68
2021/12/07 13:48:04;;;;;;;40.53;22.10;;;2.60;99.90;;;;;;5117440;28;20453;-68
2021/12/07 13:50:33;;;;;;;35.23;21.03;;;2.60;99.90;;;;;;5115240;28;20452;-68
2021/12/07 13:53:01;;;;;;;38.47;22.57;;;2.60;99.90;;;;;;5115183;28;20908;-68
2021/12/07 13:55:31;;;;;;;38.23;22.97;;;2.50;99.90;;;;;;5115241;28;20457;-69
2021/12/07 13:58:01;;;;;;;43.50;23.30;;;2.60;99.90;;;;;;5115378;28;20457;-68
2021/12/07 14:00:30;;;;;;;41.00;23.17;;;2.50;99.90;;;;;;5116442;28;20471;-68
2021/12/07 14:03:00;;;;;;;37.87;23.10;;;2.60;99.90;;;;;;5116110;28;20456;-68